createdAt,value
2018-12-23T00:00:53.316Z,19.97
2018-12-23T00:03:22.264Z,20.60
2018-12-23T00:05:51.228Z,21.93
2018-12-23T00:08:20.237Z,19.70
2018-12-23T00:10:49.193Z,20.70
2018-12-23T00:13:18.131Z,20.33
2018-12-23T00:15:47.132Z,19.27
2018-12-23T00:18:16.048Z,21.73
2018-12-23T00:20:44.992Z,21.73
2018-12-23T00:23:13.989Z,22.20
2018-12-23T00:25:42.896Z,20.60
2018-12-23T00:28:11.833Z,20.17
2018-12-23T00:30:40.832Z,20.40
2018-12-23T00:33:09.847Z,19.27
2018-12-23T00:35:38.879Z,18.17
2018-12-23T00:38:07.849Z,17.30
2018-12-23T00:40:36.740Z,16.83
2018-12-23T00:43:05.633Z,15.47
2018-12-23T00:45:34.784Z,15.43
2018-12-23T00:48:03.688Z,15.58
2018-12-23T00:50:33.431Z,15.90
2018-12-23T00:53:02.464Z,14.70
2018-12-23T00:55:31.360Z,16.47
2018-12-23T00:58:00.272Z,14.10
2018-12-23T01:00:29.291Z,15.00
2018-12-23T01:02:58.182Z,13.40
2018-12-23T01:05:28.907Z,14.47
2018-12-23T01:07:58.100Z,14.67
2018-12-23T01:10:27.008Z,15.37
2018-12-23T01:12:55.984Z,15.87
2018-12-23T01:15:25.121Z,14.57
2018-12-23T01:17:54.035Z,14.87
2018-12-23T01:20:23.336Z,15.23
2018-12-23T01:22:52.306Z,16.63
2018-12-23T01:25:21.209Z,15.77
2018-12-23T01:27:50.113Z,16.60
2018-12-23T01:30:19.077Z,17.37
2018-12-23T01:32:47.986Z,16.67
2018-12-23T01:35:16.892Z,17.70
2018-12-23T01:37:45.948Z,17.00
2018-12-23T01:40:15.445Z,16.23
2018-12-23T01:42:44.336Z,16.27
2018-12-23T01:45:13.319Z,16.90
2018-12-23T01:47:42.204Z,16.30
2018-12-23T01:50:11.129Z,17.57
2018-12-23T01:52:40.104Z,17.03
2018-12-23T01:55:09.096Z,18.03
2018-12-23T01:57:37.984Z,16.97
2018-12-23T02:00:08.146Z,16.70
2018-12-23T02:02:37.040Z,16.37
2018-12-23T02:05:05.998Z,17.07
2018-12-23T02:07:35.076Z,17.17
2018-12-23T02:10:04.164Z,16.97
2018-12-23T02:12:33.235Z,17.37
2018-12-23T02:15:02.247Z,17.30
2018-12-23T02:17:31.247Z,17.70
2018-12-23T02:20:00.952Z,17.07
2018-12-23T02:22:29.912Z,15.57
2018-12-23T02:24:58.873Z,16.50
2018-12-23T02:27:27.983Z,16.57
2018-12-23T02:29:56.943Z,17.23
2018-12-23T02:32:25.825Z,15.83
2018-12-23T02:35:00.961Z,17.13
2018-12-23T02:37:29.866Z,17.87
2018-12-23T02:39:59.049Z,17.07
2018-12-23T02:42:28.021Z,17.27
2018-12-23T02:44:56.941Z,16.23
2018-12-23T02:47:25.854Z,18.03
2018-12-23T02:49:54.928Z,17.90
2018-12-23T02:52:23.904Z,17.33
2018-12-23T02:54:52.811Z,16.57
2018-12-23T02:57:21.857Z,16.57
2018-12-23T02:59:50.783Z,16.83
2018-12-23T03:02:19.682Z,16.40
2018-12-23T03:04:48.661Z,16.03
2018-12-23T03:07:17.652Z,17.90
2018-12-23T03:09:46.673Z,17.27
2018-12-23T03:12:16.253Z,18.93
2018-12-23T03:14:45.169Z,17.73
2018-12-23T03:17:14.068Z,18.40
2018-12-23T03:19:43.843Z,17.77
2018-12-23T03:22:12.751Z,17.73
2018-12-23T03:24:41.653Z,19.10
2018-12-23T03:27:10.653Z,18.30
2018-12-23T03:29:39.561Z,17.43
2018-12-23T03:32:08.494Z,18.20
2018-12-23T03:34:37.507Z,17.60
2018-12-23T03:37:06.405Z,18.07
2018-12-23T03:39:35.351Z,17.70
2018-12-23T03:42:04.365Z,18.03
2018-12-23T03:44:33.271Z,17.67
2018-12-23T03:47:02.172Z,18.07
2018-12-23T03:49:31.137Z,19.10
2018-12-23T03:52:00.070Z,18.93
2018-12-23T03:54:29.285Z,19.00
2018-12-23T03:56:59.381Z,20.10
2018-12-23T03:59:28.348Z,19.27
2018-12-23T04:01:57.452Z,19.53
2018-12-23T04:04:26.438Z,18.70
2018-12-23T04:06:55.348Z,18.47
2018-12-23T04:09:24.247Z,19.67
2018-12-23T04:11:53.296Z,19.70
2018-12-23T04:14:22.210Z,20.00
2018-12-23T04:16:51.129Z,19.40
2018-12-23T04:19:20.097Z,18.63
2018-12-23T04:21:49.008Z,18.93
2018-12-23T04:24:18.309Z,22.53
2018-12-23T04:26:47.531Z,22.43
2018-12-23T04:29:16.549Z,23.17
2018-12-23T04:31:45.485Z,22.37
2018-12-23T04:34:14.461Z,21.53
2018-12-23T04:36:43.372Z,22.03
2018-12-23T04:39:12.350Z,22.20
2018-12-23T04:41:41.446Z,24.80
2018-12-23T04:44:10.633Z,23.13
2018-12-23T04:46:39.524Z,22.70
2018-12-23T04:49:08.499Z,21.73
2018-12-23T04:51:37.388Z,20.07
2018-12-23T04:54:06.288Z,18.92
2018-12-23T04:56:35.340Z,16.45
2018-12-23T04:59:04.262Z,14.80
2018-12-23T05:01:33.263Z,14.58
2018-12-23T05:04:02.298Z,15.65
2018-12-23T05:06:31.204Z,13.75
2018-12-23T05:09:00.104Z,11.83
2018-12-23T05:11:29.078Z,14.40
2018-12-23T05:13:57.989Z,13.05
2018-12-23T05:16:26.883Z,12.60
2018-12-23T05:18:55.889Z,12.82
2018-12-23T05:21:24.801Z,13.00
2018-12-23T05:23:53.760Z,12.88
2018-12-23T05:26:22.716Z,11.57
2018-12-23T05:28:52.408Z,10.53
2018-12-23T05:31:22.344Z,11.18
2018-12-23T05:33:51.348Z,13.43
2018-12-23T05:36:20.274Z,12.58
2018-12-23T05:38:49.204Z,12.25
2018-12-23T05:41:18.993Z,13.08
2018-12-23T05:43:47.896Z,13.45
2018-12-23T05:46:16.853Z,12.98
2018-12-23T05:48:45.836Z,12.95
2018-12-23T05:51:14.813Z,13.08
2018-12-23T05:53:43.860Z,12.78
2018-12-23T05:56:12.820Z,12.33
2018-12-23T05:58:41.708Z,13.35
2018-12-23T06:01:10.700Z,12.53
2018-12-23T06:03:39.727Z,12.45
2018-12-23T06:06:08.641Z,12.60
2018-12-23T06:08:37.563Z,12.68
2018-12-23T06:11:06.753Z,12.50
2018-12-23T06:13:35.804Z,10.68
2018-12-23T06:16:04.797Z,9.65
2018-12-23T06:18:33.841Z,10.50
2018-12-23T06:21:02.744Z,12.65
2018-12-23T06:23:31.644Z,11.97
2018-12-23T06:26:00.635Z,11.38
2018-12-23T06:28:29.533Z,11.20
2018-12-23T06:30:58.476Z,7.17
2018-12-23T06:33:28.569Z,5.85
2018-12-23T06:35:57.516Z,6.85
2018-12-23T06:38:26.415Z,9.35
2018-12-23T06:40:55.499Z,8.80
2018-12-23T06:43:25.030Z,9.88
2018-12-23T06:45:53.976Z,7.78
2018-12-23T06:48:22.976Z,8.45
2018-12-23T06:50:51.884Z,6.03
2018-12-23T06:53:20.813Z,5.30
2018-12-23T06:55:49.890Z,5.35
2018-12-23T06:58:18.776Z,5.05
2018-12-23T07:00:47.739Z,4.95
2018-12-23T07:03:16.772Z,7.33
2018-12-23T07:05:45.829Z,5.85
2018-12-23T07:08:14.915Z,5.78
2018-12-23T07:10:44.028Z,5.25
2018-12-23T07:13:12.935Z,4.47
2018-12-23T07:15:41.834Z,4.40
2018-12-23T07:18:10.848Z,3.02
2018-12-23T07:20:39.774Z,3.95
2018-12-23T07:23:08.676Z,2.87
2018-12-23T07:25:37.704Z,2.17
2018-12-23T07:28:06.621Z,2.80
2018-12-23T07:30:35.537Z,4.58
2018-12-23T07:33:04.504Z,3.70
2018-12-23T07:35:33.407Z,6.62
2018-12-23T07:38:02.312Z,6.00
2018-12-23T07:40:31.308Z,6.87
2018-12-23T07:43:00.288Z,6.97
2018-12-23T07:45:29.199Z,7.33
2018-12-23T07:47:58.204Z,7.58
2018-12-23T07:50:27.128Z,7.30
2018-12-23T07:52:56.054Z,7.35
2018-12-23T07:55:25.046Z,4.80
2018-12-23T07:57:54.055Z,5.33
2018-12-23T08:00:23.114Z,5.95
2018-12-23T08:02:52.184Z,5.92
2018-12-23T08:05:21.159Z,6.03
2018-12-23T08:07:50.660Z,5.37
2018-12-23T08:10:19.755Z,5.25
2018-12-23T08:12:48.696Z,5.87
2018-12-23T08:15:17.653Z,5.22
2018-12-23T08:17:46.750Z,5.83
2018-12-23T08:20:15.708Z,6.15
2018-12-23T08:22:44.659Z,6.78
2018-12-23T08:25:13.915Z,6.00
2018-12-23T08:27:42.840Z,6.60
2018-12-23T08:30:11.874Z,7.35
2018-12-23T08:32:40.881Z,7.47
2018-12-23T08:35:09.813Z,8.45
2018-12-23T08:37:44.536Z,7.40
2018-12-23T08:40:09.903Z,8.08
2018-12-23T08:42:38.838Z,10.20
2018-12-23T08:45:07.789Z,8.35
2018-12-23T08:47:36.756Z,7.40
2018-12-23T08:50:06.237Z,8.93
2018-12-23T08:52:35.170Z,8.70
2018-12-23T08:55:04.332Z,9.83
2018-12-23T08:57:35.339Z,9.70
2018-12-23T09:00:04.601Z,10.90
2018-12-23T09:02:33.509Z,10.68
2018-12-23T09:05:02.424Z,9.60
2018-12-23T09:07:31.444Z,10.32
2018-12-23T09:10:00.446Z,11.63
2018-12-23T09:12:29.373Z,11.00
2018-12-23T09:14:58.356Z,11.75
2018-12-23T09:17:27.261Z,12.03
2018-12-23T09:19:56.192Z,11.35
2018-12-23T09:22:25.205Z,11.90
2018-12-23T09:24:54.114Z,11.73
2018-12-23T09:27:23.069Z,13.83
2018-12-23T09:29:52.060Z,12.47
2018-12-23T09:32:21.009Z,14.45
2018-12-23T09:34:49.901Z,13.13
2018-12-23T09:37:18.937Z,12.60
2018-12-23T09:39:47.850Z,13.90
2018-12-23T09:42:16.799Z,11.88
2018-12-23T09:44:45.894Z,11.20
2018-12-23T09:47:14.840Z,9.90
2018-12-23T09:49:44.860Z,12.10
2018-12-23T09:52:14.212Z,10.98
2018-12-23T09:54:43.205Z,10.72
2018-12-23T09:57:12.186Z,11.28
2018-12-23T09:59:42.150Z,10.75
2018-12-23T10:02:11.102Z,11.08
2018-12-23T10:04:40.070Z,10.38
2018-12-23T10:07:09.120Z,11.08
2018-12-23T10:09:38.025Z,11.88
2018-12-23T10:12:07.180Z,10.40
2018-12-23T10:14:36.280Z,10.58
2018-12-23T10:17:05.303Z,10.15
2018-12-23T10:19:34.206Z,9.55
2018-12-23T10:22:03.221Z,8.95
2018-12-23T10:24:32.263Z,7.72
2018-12-23T10:27:01.249Z,9.28
2018-12-23T10:29:30.247Z,10.32
2018-12-23T10:31:59.168Z,10.03
2018-12-23T10:34:28.079Z,9.45
2018-12-23T10:36:57.060Z,8.28
2018-12-23T10:39:26.297Z,9.75
2018-12-23T10:41:55.286Z,10.93
2018-12-23T10:44:24.297Z,8.13
2018-12-23T10:46:53.270Z,7.65
2018-12-23T10:49:22.200Z,8.30
2018-12-23T10:51:51.176Z,8.23
2018-12-23T10:54:20.148Z,13.80
2018-12-23T10:56:49.067Z,8.33
2018-12-23T10:59:18.026Z,8.40
2018-12-23T11:01:46.936Z,6.97
2018-12-23T11:04:28.445Z,6.08
2018-12-23T11:06:58.248Z,5.22
2018-12-23T11:09:27.154Z,4.40
2018-12-23T11:11:57.872Z,4.05
2018-12-23T11:14:26.955Z,3.20
2018-12-23T11:16:55.901Z,4.50
2018-12-23T11:19:25.072Z,4.92
2018-12-23T11:21:53.989Z,5.55
2018-12-23T11:24:22.950Z,5.53
2018-12-23T11:26:53.832Z,5.50
2018-12-23T11:29:22.980Z,5.55
2018-12-23T11:31:52.041Z,4.10
2018-12-23T11:34:21.585Z,3.92
2018-12-23T11:36:50.637Z,4.22
2018-12-23T11:39:20.863Z,4.25
2018-12-23T11:41:49.812Z,3.92
2018-12-23T11:44:18.740Z,3.90
2018-12-23T11:46:47.767Z,4.62
2018-12-23T11:49:16.778Z,6.47
2018-12-23T11:51:45.791Z,4.17
2018-12-23T11:54:14.884Z,5.17
2018-12-23T11:56:43.890Z,5.42
2018-12-23T11:59:12.844Z,4.60
2018-12-23T12:01:41.866Z,5.67
2018-12-23T12:04:10.790Z,4.85
2018-12-23T12:06:39.743Z,4.78
2018-12-23T12:09:08.789Z,5.50
2018-12-23T12:11:37.753Z,5.10
2018-12-23T12:14:06.713Z,5.15
2018-12-23T12:16:35.814Z,5.35
2018-12-23T12:19:04.817Z,6.90
2018-12-23T12:21:33.712Z,6.47
2018-12-23T12:24:02.693Z,5.58
2018-12-23T12:26:31.629Z,6.40
2018-12-23T12:29:01.555Z,6.10
2018-12-23T12:31:30.562Z,6.95
2018-12-23T12:33:59.485Z,6.92
2018-12-23T12:36:28.400Z,7.22
2018-12-23T12:38:57.369Z,7.15
2018-12-23T12:41:26.312Z,5.47
2018-12-23T12:43:55.266Z,5.80
2018-12-23T12:46:25.824Z,6.50
2018-12-23T12:48:54.738Z,5.85
2018-12-23T12:51:23.710Z,6.00
2018-12-23T12:53:52.733Z,6.15
2018-12-23T12:56:22.540Z,5.93
2018-12-23T12:58:51.464Z,5.20
2018-12-23T13:01:34.440Z,5.92
2018-12-23T13:04:03.358Z,6.83
2018-12-23T13:06:32.349Z,7.47
2018-12-23T13:09:02.128Z,5.62
2018-12-23T13:11:31.061Z,5.72
2018-12-23T13:13:59.983Z,6.28
2018-12-23T13:16:35.235Z,8.50
2018-12-23T13:19:04.238Z,7.30
2018-12-23T13:21:33.177Z,5.83
2018-12-23T13:24:02.164Z,5.50
2018-12-23T13:26:31.277Z,6.22
2018-12-23T13:29:00.243Z,7.25
2018-12-23T13:31:29.240Z,6.60
2018-12-23T13:33:58.178Z,7.72
2018-12-23T13:36:27.148Z,6.90
2018-12-23T13:38:56.157Z,7.37
2018-12-23T13:41:37.391Z,6.80
2018-12-23T13:44:16.568Z,6.62
2018-12-23T13:47:53.264Z,7.37
2018-12-23T13:50:28.615Z,7.37
2018-12-23T13:53:07.409Z,7.97
2018-12-23T13:57:44.648Z,8.25
2018-12-23T14:00:19.941Z,6.90
2018-12-23T14:03:02.589Z,7.85
2018-12-23T14:05:50.702Z,8.10
2018-12-23T14:10:28.137Z,8.40
2018-12-23T14:12:57.064Z,9.13
2018-12-23T14:15:26.048Z,8.30
2018-12-23T14:17:55.093Z,9.45
2018-12-23T14:20:24.110Z,10.00
2018-12-23T14:22:53.105Z,9.48
2018-12-23T14:25:22.239Z,10.35
2018-12-23T14:27:51.185Z,10.32
2018-12-23T14:30:20.108Z,12.13
2018-12-23T14:32:49.084Z,12.23
2018-12-23T14:35:18.026Z,16.20
2018-12-23T14:37:47.032Z,14.40
2018-12-23T14:40:16.044Z,15.32
2018-12-23T14:42:45.808Z,15.50
2018-12-23T14:45:14.798Z,17.07
2018-12-23T14:47:43.877Z,17.92
2018-12-23T14:50:12.774Z,18.42
2018-12-23T14:52:41.724Z,17.12
2018-12-23T14:55:10.687Z,19.07
2018-12-23T14:57:39.621Z,19.57
2018-12-23T15:00:09.388Z,19.25
2018-12-23T15:02:38.408Z,19.37
2018-12-23T15:05:07.789Z,20.72
2018-12-23T15:07:36.725Z,20.48
2018-12-23T15:10:05.856Z,21.65
2018-12-23T15:12:34.897Z,22.80
2018-12-23T15:15:03.900Z,22.60
2018-12-23T15:17:32.876Z,23.10
2018-12-23T15:20:01.793Z,22.93
2018-12-23T15:22:30.805Z,23.35
2018-12-23T15:24:59.804Z,25.80
2018-12-23T15:27:28.738Z,24.90
2018-12-23T15:29:57.833Z,24.40
2018-12-23T15:32:26.852Z,24.52
2018-12-23T15:34:55.805Z,21.17
2018-12-23T15:37:24.771Z,21.82
2018-12-23T15:39:53.787Z,22.37
2018-12-23T15:42:22.696Z,22.15
2018-12-23T15:44:51.700Z,21.85
2018-12-23T15:47:20.680Z,25.65
2018-12-23T15:49:49.637Z,24.92
2018-12-23T15:52:18.592Z,26.05
2018-12-23T15:54:47.646Z,27.75
2018-12-23T15:57:16.572Z,27.80
2018-12-23T15:59:45.492Z,27.55
2018-12-23T16:02:14.546Z,29.48
2018-12-23T16:04:43.465Z,29.25
2018-12-23T16:07:12.393Z,29.55
2018-12-23T16:09:41.400Z,28.73
2018-12-23T16:12:10.387Z,29.32
2018-12-23T16:14:40.235Z,29.18
2018-12-23T16:17:09.244Z,30.35
2018-12-23T16:19:38.269Z,26.30
2018-12-23T16:22:07.240Z,26.33
2018-12-23T16:24:36.428Z,26.02
2018-12-23T16:27:05.320Z,29.52
2018-12-23T16:29:34.268Z,32.98
2018-12-23T16:32:03.282Z,30.10
2018-12-23T16:34:32.205Z,23.45
2018-12-23T16:37:01.130Z,22.50
2018-12-23T16:39:30.106Z,22.15
2018-12-23T16:41:59.024Z,21.52
2018-12-23T16:44:27.948Z,19.32
2018-12-23T16:46:56.925Z,24.32
2018-12-23T16:49:25.837Z,22.35
2018-12-23T16:51:54.732Z,22.45
2018-12-23T16:54:23.706Z,20.15
2018-12-23T16:56:52.618Z,18.35
2018-12-23T16:59:21.573Z,18.57
2018-12-23T17:01:50.579Z,19.07
2018-12-23T17:04:20.488Z,19.60
2018-12-23T17:06:49.441Z,16.55
2018-12-23T17:09:19.152Z,18.52
2018-12-23T17:11:48.068Z,20.30
2018-12-23T17:14:17.586Z,17.15
2018-12-23T17:16:46.560Z,18.35
2018-12-23T17:19:15.516Z,19.62
2018-12-23T17:21:44.412Z,20.27
2018-12-23T17:24:13.399Z,17.27
2018-12-23T17:26:42.365Z,15.72
2018-12-23T17:29:11.316Z,18.20
2018-12-23T17:31:40.310Z,15.58
2018-12-23T17:34:09.256Z,16.25
2018-12-23T17:36:39.298Z,16.52
2018-12-23T17:39:08.315Z,17.12
2018-12-23T17:41:37.233Z,20.65
2018-12-23T17:44:06.136Z,24.18
2018-12-23T17:46:35.113Z,23.20
2018-12-23T17:49:04.032Z,24.15
2018-12-23T17:51:32.950Z,24.12
2018-12-23T17:54:02.181Z,23.98
2018-12-23T17:56:31.093Z,26.30
2018-12-23T17:59:00.245Z,25.72
2018-12-23T18:01:29.225Z,25.00
2018-12-23T18:04:02.282Z,25.02
2018-12-23T18:06:29.152Z,25.92
2018-12-23T18:08:58.085Z,28.77
2018-12-23T18:11:26.985Z,30.10
2018-12-23T18:13:55.971Z,29.47
2018-12-23T18:16:24.936Z,30.87
2018-12-23T18:18:53.951Z,30.70
2018-12-23T18:21:22.911Z,32.60
2018-12-23T18:23:51.829Z,35.30
2018-12-23T18:26:20.749Z,34.58
2018-12-23T18:28:49.787Z,34.80
2018-12-23T18:31:18.701Z,34.95
2018-12-23T18:33:47.612Z,35.10
2018-12-23T18:36:16.589Z,35.97
2018-12-23T18:38:45.485Z,35.17
2018-12-23T18:41:14.437Z,37.20
2018-12-23T18:43:43.416Z,37.57
2018-12-23T18:46:12.312Z,35.15
2018-12-23T18:48:41.225Z,37.47
2018-12-23T18:51:10.199Z,37.20
2018-12-23T18:53:39.110Z,35.70
2018-12-23T18:56:08.121Z,36.93
2018-12-23T18:58:37.109Z,38.13
2018-12-23T19:01:06.425Z,36.97
2018-12-23T19:03:36.527Z,36.83
2018-12-23T19:06:06.473Z,36.98
2018-12-23T19:10:44.745Z,37.48
2018-12-23T19:13:33.973Z,38.20
2018-12-23T19:16:09.879Z,38.97
2018-12-23T19:20:47.476Z,37.50
2018-12-23T19:23:22.422Z,37.73
2018-12-23T19:26:03.437Z,39.57
2018-12-23T19:29:13.536Z,39.90
2018-12-23T19:31:51.476Z,41.47
2018-12-23T19:34:34.004Z,40.53
2018-12-23T19:37:11.685Z,41.40
2018-12-23T19:41:50.824Z,40.50
2018-12-23T19:44:35.913Z,40.47
2018-12-23T19:49:11.060Z,43.83
2018-12-23T19:51:46.284Z,44.47
2018-12-23T19:54:27.521Z,41.93
2018-12-23T19:57:05.049Z,43.43
2018-12-23T19:59:42.409Z,42.13
2018-12-23T20:04:18.225Z,42.13
2018-12-23T20:07:04.217Z,42.73
2018-12-23T20:09:37.517Z,42.43
2018-12-23T20:12:11.784Z,41.60
2018-12-23T20:14:47.695Z,41.67
2018-12-23T20:17:37.992Z,43.93
2018-12-23T20:20:16.005Z,41.97
2018-12-23T20:24:54.229Z,42.60
2018-12-23T20:27:32.099Z,40.07
2018-12-23T20:30:09.653Z,39.37
2018-12-23T20:33:46.244Z,38.30
2018-12-23T20:36:22.886Z,37.90
2018-12-23T20:39:00.972Z,37.87
2018-12-23T20:41:50.889Z,38.47
2018-12-23T20:44:25.216Z,39.83
2018-12-23T20:47:01.745Z,41.50
2018-12-23T20:49:40.252Z,38.57
2018-12-23T20:52:18.984Z,39.43
2018-12-23T20:55:03.021Z,39.40
2018-12-23T20:59:40.244Z,40.60
2018-12-23T21:02:21.293Z,38.93
2018-12-23T21:04:54.521Z,38.70
2018-12-23T21:07:28.772Z,39.10
2018-12-23T21:10:04.858Z,40.20
2018-12-23T21:12:45.060Z,40.40
2018-12-23T21:15:54.944Z,41.70
2018-12-23T21:19:33.825Z,39.33
2018-12-23T21:22:12.935Z,39.10
2018-12-23T21:26:51.185Z,38.43
2018-12-23T21:29:31.245Z,37.60
2018-12-23T21:32:06.465Z,38.53
2018-12-23T21:35:11.721Z,40.23
2018-12-23T21:37:46.808Z,30.57
2018-12-23T21:40:28.753Z,32.67
2018-12-23T21:43:04.781Z,32.47
2018-12-23T21:45:45.569Z,32.57
2018-12-23T21:48:38.817Z,33.47
2018-12-23T21:53:19.060Z,32.77
2018-12-23T21:55:56.572Z,32.93
2018-12-23T21:58:35.564Z,32.67
2018-12-23T22:01:09.768Z,34.00
2018-12-23T22:03:46.844Z,33.20
2018-12-23T22:06:55.975Z,32.47
2018-12-23T22:09:50.068Z,32.80
2018-12-23T22:12:30.884Z,32.17
2018-12-23T22:14:59.772Z,31.57
2018-12-23T22:17:28.680Z,31.40
2018-12-23T22:19:57.636Z,30.87
2018-12-23T22:22:26.540Z,29.50
2018-12-23T22:24:55.441Z,28.27
2018-12-23T22:27:24.418Z,28.10
2018-12-23T22:29:53.365Z,26.97
2018-12-23T22:32:22.268Z,25.90
2018-12-23T22:34:51.287Z,27.03
2018-12-23T22:37:20.210Z,26.60
2018-12-23T22:39:49.149Z,26.47
2018-12-23T22:42:19.057Z,28.50
2018-12-23T22:44:47.957Z,25.57
2018-12-23T22:47:16.840Z,24.23
2018-12-23T22:49:46.816Z,24.13
2018-12-23T22:52:15.717Z,24.10
2018-12-23T22:54:44.696Z,25.20
2018-12-23T22:57:14.601Z,23.40
2018-12-23T22:59:44.562Z,24.03
2018-12-23T23:02:13.493Z,24.23
2018-12-23T23:04:42.540Z,23.57
2018-12-23T23:07:11.467Z,24.57
2018-12-23T23:09:40.385Z,24.13
2018-12-23T23:12:09.377Z,24.77
2018-12-23T23:14:38.304Z,23.07
2018-12-23T23:17:07.199Z,24.07
2018-12-23T23:19:36.276Z,23.37
2018-12-23T23:22:05.251Z,23.87
2018-12-23T23:24:34.175Z,24.93
2018-12-23T23:27:03.493Z,24.23
2018-12-23T23:29:32.714Z,23.97
2018-12-23T23:32:01.628Z,22.77
2018-12-23T23:34:30.664Z,23.17
2018-12-23T23:36:59.621Z,24.23
2018-12-23T23:39:28.520Z,22.93
2018-12-23T23:41:58.413Z,23.77
2018-12-23T23:44:27.741Z,23.27
2018-12-23T23:46:56.670Z,23.23
2018-12-23T23:49:25.631Z,23.43
2018-12-23T23:51:54.520Z,23.23
2018-12-23T23:54:23.579Z,25.63
2018-12-23T23:56:58.722Z,25.73
2018-12-23T23:59:28.641Z,25.23
